Lehighton, Pennsylvania
Current Conditions -  °F | °C
As of 5:35 AM on Sunday 26 Oct 2014 (Local Time) from KHZL Reporting Station
Broken Clouds Broken Clouds  
Wind Chill: 50°   Ceiling: 6000
Heat Index: 50°   Visibility: 10mi
Dew Point: 32°   Wind: 14mph
Humidity: 50%   Direction: 290°WNW
Pressure: 29.68"   Gusts: 20mph
Location:  40.83°N, 75.71°W
Report Text: KHZL 260935Z AUTO 29012G17KT 10SM BKN060 10/00 A2968 RMK AO2
Loading
Personal Weather Stations






























Interactive Weather Map New forecast layout! Learn more

10-Day Weather Forecast

Advertisements
Track Severe Weather on mobile